Time;durP1;ratioP1;P1;durP2;ratioP2;P2;SDS_P1;SDS_P2;PMS_P1;PMS_P2;Temp;Humidity;BMP_temperature;BMP_pressure;BME280_temperature;BME280_humidity;BME280_pressure;Samples;Min_cycle;Max_cycle;Signal;HPM_P1;HPM_P2
2023/03/14 00:02:09;;;;;;;13.62;7.70;;;;;;;9.30;40.08;98942.41;7710909;32;39359;-84
2023/03/14 00:06:25;;;;;;;13.80;7.22;;;;;;;9.17;39.99;98944.66;7710989;32;40706;-85
2023/03/14 00:10:42;;;;;;;15.27;8.23;;;;;;;9.26;39.88;98936.72;7710857;32;37896;-84
2023/03/14 00:14:59;;;;;;;13.88;7.35;;;;;;;9.25;39.91;98940.53;7697278;32;37158;-84
2023/03/14 00:19:16;;;;;;;16.92;7.87;;;;;;;9.37;39.61;98916.50;7710630;32;39346;-84
2023/03/14 00:23:33;;;;;;;14.18;7.40;;;;;;;9.33;39.73;98914.62;7710916;32;40752;-85
2023/03/14 00:27:51;;;;;;;14.48;7.78;;;;;;;9.32;39.83;98900.22;7696972;32;37549;-87
2023/03/14 00:32:08;;;;;;;14.82;7.57;;;;;;;9.27;39.83;98891.28;7696212;32;36782;-86
2023/03/14 00:36:24;;;;;;;15.55;7.60;;;;;;;9.27;39.81;98883.94;7696707;32;39983;-87
2023/03/14 00:40:40;;;;;;;15.73;8.20;;;;;;;9.28;39.65;98891.00;7710146;32;41708;-87
2023/03/14 00:44:57;;;;;;;15.95;7.68;;;;;;;9.10;39.96;98884.34;7710137;32;37952;-86
2023/03/14 00:49:13;;;;;;;12.05;7.30;;;;;;;9.01;40.10;98873.28;7710056;32;36987;-86
2023/03/14 00:53:29;;;;;;;18.87;7.75;;;;;;;8.91;40.27;98870.63;7710012;32;38922;-86
2023/03/14 00:57:46;;;;;;;15.27;7.97;;;;;;;8.82;40.44;98853.31;7709856;32;39992;-86
2023/03/14 01:02:02;;;;;;;14.00;7.65;;;;;;;8.94;40.14;98863.81;7709578;32;38636;-87
2023/03/14 01:06:21;;;;;;;17.05;8.25;;;;;;;8.89;40.24;98861.16;7709680;32;37909;-87
2023/03/14 01:10:41;;;;;;;17.08;8.63;;;;;;;8.49;41.19;98852.97;7696244;32;39064;-87
2023/03/14 01:14:58;;;;;;;15.35;8.27;;;;;;;8.52;41.06;98844.28;7709646;32;39724;-87
2023/03/14 01:19:14;;;;;;;15.32;7.82;;;;;;;8.46;41.31;98823.66;7709025;32;37758;-87
2023/03/14 01:23:30;;;;;;;14.65;7.20;;;;;;;8.33;41.41;98816.09;7709094;32;36971;-86
2023/03/14 01:27:46;;;;;;;14.98;7.45;;;;;;;8.46;41.28;98816.31;7709131;32;40202;-88
2023/03/14 01:32:03;;;;;;;13.88;7.45;;;;;;;8.44;41.35;98809.56;7709007;32;40897;-87
2023/03/14 01:36:20;;;;;;;14.87;7.55;;;;;;;8.31;41.50;98791.13;7708856;32;37991;-87
2023/03/14 01:40:43;;;;;;;15.93;7.37;;;;;;;8.20;41.64;98774.91;7708741;32;37076;-87
2023/03/14 01:45:01;;;;;;;12.13;7.62;;;;;;;8.15;42.11;98765.97;7711000;32;39047;-87
2023/03/14 01:49:20;;;;;;;16.42;7.15;;;;;;;7.88;42.84;98768.03;7712708;32;40765;-88
2023/03/14 01:53:38;;;;;;;16.60;8.18;;;;;;;7.77;43.02;98755.59;7712602;32;37793;-87
2023/03/14 01:58:01;;;;;;;13.80;7.93;;;;;;;7.83;43.05;98737.38;7712629;32;36094;-87
2023/03/14 02:02:17;;;;;;;15.18;8.00;;;;;;;7.84;43.09;98731.66;7699539;32;39382;-87
2023/03/14 02:06:51;;;;;;;15.25;7.62;;;;;;;7.75;43.29;98725.22;7712469;32;40764;-87
2023/03/14 02:11:08;;;;;;;13.98;7.25;;;;;;;7.69;43.45;98710.03;7699458;32;37511;-87
2023/03/14 02:15:24;;;;;;;12.32;6.95;;;;;;;7.37;44.35;98699.63;7698523;32;37799;-86
2023/03/14 02:19:46;;;;;;;11.38;6.93;;;;;;;7.25;44.70;98702.66;7698778;32;39262;-87
2023/03/14 02:24:16;;;;;;;14.65;7.47;;;;;;;7.47;44.59;98703.09;7698491;32;40013;-86
2023/03/14 02:28:32;;;;;;;13.73;7.62;;;;;;;7.37;44.67;98697.72;7699186;32;37861;-87
2023/03/14 02:33:11;;;;;;;15.80;7.25;;;;;;;7.34;44.45;98698.28;7712252;32;37062;-87
2023/03/14 02:37:47;;;;;;;17.17;6.75;;;;;;;7.20;44.55;98681.78;7712160;32;39239;-87
2023/03/14 02:42:04;;;;;;;13.57;7.18;;;;;;;7.19;44.54;98703.75;7712116;32;39757;-86
2023/03/14 02:46:21;;;;;;;14.93;6.93;;;;;;;7.22;44.24;98701.28;7712090;32;37790;-87
2023/03/14 02:50:38;;;;;;;14.82;7.40;;;;;;;7.14;44.53;98705.41;7711979;32;37606;-87
2023/03/14 02:54:54;;;;;;;13.85;7.18;;;;;;;7.06;44.47;98691.59;7711563;32;39183;-87
2023/03/14 02:59:11;;;;;;;22.37;7.60;;;;;;;7.00;44.45;98695.41;7712028;32;40921;-87
2023/03/14 03:03:27;;;;;;;14.77;7.72;;;;;;;6.77;45.18;98681.34;7711730;32;38767;-87
2023/03/14 03:07:43;;;;;;;13.68;7.10;;;;;;;6.85;45.11;98675.37;7712001;32;36992;-87
2023/03/14 03:11:59;;;;;;;12.93;6.50;;;;;;;7.00;44.81;98655.56;7698299;32;39043;-87
2023/03/14 03:16:16;;;;;;;14.30;7.22;;;;;;;6.95;45.58;98663.69;7711475;32;40642;-87
2023/03/14 03:20:32;;;;;;;12.27;6.10;;;;;;;7.03;45.34;98643.38;7711689;32;37920;-86
2023/03/14 03:24:48;;;;;;;13.85;6.40;;;;;;;7.09;45.26;98647.69;7711544;32;37061;-87
2023/03/14 03:29:05;;;;;;;13.70;7.15;;;;;;;7.13;45.08;98668.53;7697971;32;39335;-87
2023/03/14 03:33:22;;;;;;;15.90;8.40;;;;;;;6.99;45.06;98663.97;7711538;32;39991;-87
2023/03/14 03:37:39;;;;;;;12.80;6.43;;;;;;;7.06;44.49;98649.03;7711528;32;38591;-85
2023/03/14 03:41:55;;;;;;;12.20;6.45;;;;;;;7.11;44.20;98643.59;7711385;32;37000;-85
2023/03/14 03:46:11;;;;;;;11.85;6.75;;;;;;;6.88;45.40;98653.16;7711249;32;39976;-85
2023/03/14 03:50:27;;;;;;;14.20;6.65;;;;;;;7.11;44.74;98651.72;7711339;32;39811;-87
2023/03/14 03:54:44;;;;;;;10.93;6.37;;;;;;;6.94;44.73;98653.97;7711113;32;37974;-87
2023/03/14 03:59:00;;;;;;;12.25;6.62;;;;;;;7.13;44.48;98654.97;7711189;32;37357;-86
2023/03/14 04:03:16;;;;;;;15.10;6.57;;;;;;;7.07;44.32;98650.69;7711270;32;39209;-85
2023/03/14 04:07:33;;;;;;;11.50;5.78;;;;;;;6.88;44.61;98655.06;7710207;32;39788;-86
2023/03/14 04:11:50;;;;;;;13.98;5.78;;;;;;;6.85;44.54;98653.72;7710843;32;37687;-85
2023/03/14 04:16:15;;;;;;;13.05;7.10;;;;;;;6.61;45.01;98631.84;7710606;32;37106;-86
2023/03/14 04:20:33;;;;;;;12.25;6.35;;;;;;;6.76;44.86;98633.69;7710861;32;39807;-86
2023/03/14 04:24:53;;;;;;;10.75;6.70;;;;;;;6.79;44.87;98629.63;7697306;32;39120;-87
2023/03/14 04:29:09;;;;;;;11.90;6.47;;;;;;;6.84;45.01;98630.41;7710546;32;38662;-86
2023/03/14 04:33:28;;;;;;;16.60;7.32;;;;;;;6.58;45.29;98637.78;7710611;32;37751;-86
2023/03/14 04:37:44;;;;;;;11.52;6.00;;;;;;;6.81;45.07;98639.06;7710379;32;39177;-86
2023/03/14 04:42:00;;;;;;;12.18;6.78;;;;;;;6.80;44.93;98618.50;7710384;32;40075;-86
2023/03/14 04:46:16;;;;;;;12.63;5.85;;;;;;;7.00;44.46;98617.62;7710059;32;37948;-87
2023/03/14 04:50:33;;;;;;;13.18;6.32;;;;;;;7.07;44.23;98639.00;7710175;32;37090;-87
2023/03/14 04:54:49;;;;;;;13.07;6.22;;;;;;;7.10;44.09;98624.91;7696416;32;39976;-87
2023/03/14 04:59:05;;;;;;;11.43;6.00;;;;;;;7.07;44.42;98633.59;7709892;32;39602;-86
2023/03/14 05:03:22;;;;;;;13.68;6.10;;;;;;;6.83;45.13;98628.81;7696227;32;37764;-86
2023/03/14 05:07:38;;;;;;;15.18;7.05;;;;;;;6.92;45.21;98615.50;7709824;32;37794;-87
2023/03/14 05:11:54;;;;;;;10.70;6.35;;;;;;;6.99;44.94;98605.16;7709563;32;40150;-87
2023/03/14 05:16:11;;;;;;;12.65;6.05;;;;;;;7.11;45.12;98607.56;7709261;32;39967;-87
2023/03/14 05:20:27;;;;;;;14.30;7.40;;;;;;;7.01;45.38;98597.56;7712631;32;37523;-86
2023/03/14 05:24:44;;;;;;;11.57;6.05;;;;;;;7.12;44.70;98601.88;7713107;32;36898;-86
2023/03/14 05:29:00;;;;;;;10.88;5.90;;;;;;;7.13;44.80;98600.75;7713027;32;39155;-87
2023/03/14 05:33:16;;;;;;;11.88;6.80;;;;;;;6.75;45.91;98611.19;7712956;32;39883;-87
2023/03/14 05:37:33;;;;;;;8.70;6.10;;;;;;;6.91;45.37;98576.72;7712736;32;37890;-88
2023/03/14 05:41:49;;;;;;;11.52;6.07;;;;;;;7.20;45.16;98588.81;7712803;32;37717;-87
2023/03/14 05:46:05;;;;;;;9.50;5.68;;;;;;;7.31;44.76;98576.81;7712906;32;39248;-87
2023/03/14 05:50:22;;;;;;;11.85;6.25;;;;;;;7.48;44.66;98568.31;7712661;32;40998;-87
2023/03/14 05:54:38;;;;;;;11.95;6.32;;;;;;;7.48;44.69;98574.53;7712668;32;37805;-86
2023/03/14 05:58:54;;;;;;;12.85;6.10;;;;;;;7.64;44.26;98566.31;7712643;32;37047;-88
2023/03/14 06:03:11;;;;;;;12.73;6.18;;;;;;;7.92;44.47;98575.59;7712571;32;39988;-87
2023/03/14 06:07:27;;;;;;;10.15;6.43;;;;;;;8.00;44.23;98585.03;7712479;32;39969;-87
2023/03/14 06:11:43;;;;;;;8.38;5.37;;;;;;;8.14;43.79;98563.47;7712514;32;37771;-87
2023/03/14 06:15:59;;;;;;;12.70;6.47;;;;;;;8.31;44.75;98565.75;7712330;32;37528;-87
2023/03/14 06:20:16;;;;;;;11.95;5.80;;;;;;;8.23;44.34;98578.84;7712358;32;39047;-86
2023/03/14 06:24:32;;;;;;;14.82;6.95;;;;;;;8.34;43.37;98567.91;7712332;32;39884;-87
2023/03/14 06:28:50;;;;;;;14.65;6.10;;;;;;;8.09;43.94;98572.47;7711426;32;38667;-87
2023/03/14 06:33:06;;;;;;;13.05;5.93;;;;;;;8.35;43.73;98559.47;7712172;32;37122;-87
2023/03/14 06:37:23;;;;;;;10.45;5.37;;;;;;;8.58;43.42;98571.47;7712198;32;39328;-87
2023/03/14 06:41:39;;;;;;;10.90;6.47;;;;;;;8.18;45.02;98587.03;7712041;32;39873;-87
2023/03/14 06:45:55;;;;;;;11.80;6.35;;;;;;;8.56;44.03;98583.72;7711898;32;37512;-86
2023/03/14 06:50:12;;;;;;;9.85;5.93;;;;;;;8.73;43.92;98581.38;7712099;32;37646;-87
2023/03/14 06:54:28;;;;;;;12.02;5.95;;;;;;;8.87;43.58;98573.31;7711982;32;39339;-87
2023/03/14 06:58:44;;;;;;;12.65;6.15;;;;;;;8.95;43.60;98577.28;7711851;32;39816;-88
2023/03/14 07:03:04;;;;;;;13.60;6.32;;;;;;;9.01;43.63;98574.22;7711708;32;37874;-87
2023/03/14 07:07:20;;;;;;;11.50;6.28;;;;;;;9.15;43.64;98573.53;7711827;32;37798;-87
2023/03/14 07:11:37;;;;;;;10.80;6.30;;;;;;;9.19;43.43;98574.53;7711904;32;39295;-87
2023/03/14 07:15:53;;;;;;;11.98;5.62;;;;;;;9.40;43.42;98578.63;7711545;32;39958;-86
2023/03/14 07:20:10;;;;;;;11.00;5.72;;;;;;;9.61;43.60;98582.94;7711487;32;38635;-83
2023/03/14 07:24:26;;;;;;;12.32;6.97;;;;;;;9.82;42.94;98584.25;7711625;32;36971;-85
2023/03/14 07:28:43;;;;;;;12.40;6.35;;;;;;;9.96;43.05;98568.78;7711601;32;39407;-85
2023/03/14 07:32:59;;;;;;;12.75;6.37;;;;;;;10.14;42.75;98579.91;7711529;32;40813;-85
2023/03/14 07:37:15;;;;;;;13.05;6.65;;;;;;;10.49;42.26;98570.34;7711357;32;38459;-84
2023/03/14 07:41:34;;;;;;;13.38;6.60;;;;;;;10.81;41.87;98571.38;7711428;32;35946;-84
2023/03/14 07:45:51;;;;;;;12.52;6.32;;;;;;;11.14;41.63;98557.62;7711369;32;39308;-85
2023/03/14 07:50:14;;;;;;;13.62;6.22;;;;;;;11.37;40.49;98568.59;7711432;32;40648;-84
2023/03/14 07:54:30;;;;;;;12.88;6.80;;;;;;;11.67;40.37;98579.94;7711047;32;38603;-84
2023/03/14 07:58:46;;;;;;;16.92;6.87;;;;;;;11.91;39.89;98552.34;7711151;32;37830;-85
2023/03/14 08:03:03;;;;;;;12.65;5.97;;;;;;;12.12;39.92;98552.66;7710984;32;40084;-85
2023/03/14 08:07:21;;;;;;;13.27;6.57;;;;;;;12.56;39.35;98553.69;7703613;32;238042;-85
2023/03/14 08:11:37;;;;;;;12.30;6.00;;;;;;;12.75;38.92;98546.03;7710881;32;37565;-85
2023/03/14 08:15:54;;;;;;;15.68;6.87;;;;;;;13.00;38.22;98534.69;7710601;32;36796;-84
2023/03/14 08:20:12;;;;;;;15.32;6.50;;;;;;;13.32;37.87;98533.50;7710347;32;39293;-85
2023/03/14 08:24:28;;;;;;;12.00;6.43;;;;;;;13.43;37.64;98531.25;7710761;32;39800;-84
2023/03/14 08:28:44;;;;;;;10.68;6.25;;;;;;;13.69;36.84;98542.19;7710353;32;38683;-85
2023/03/14 08:33:01;;;;;;;16.62;6.35;;;;;;;14.06;36.68;98518.00;7710324;32;37278;-85
2023/03/14 08:37:18;;;;;;;13.30;6.45;;;;;;;14.11;36.90;98526.03;7710205;32;39268;-84
2023/03/14 08:41:43;;;;;;;13.75;5.82;;;;;;;14.48;36.03;98517.38;7710375;32;39712;-85
2023/03/14 08:46:00;;;;;;;11.82;5.47;;;;;;;14.78;35.78;98504.50;7709922;32;37542;-85
2023/03/14 08:50:17;;;;;;;8.88;4.87;;;;;;;15.33;36.29;98505.44;7709982;32;37888;-85
2023/03/14 08:54:33;;;;;;;13.52;5.80;;;;;;;15.96;35.02;98494.44;7712155;32;39815;-85
2023/03/14 08:58:50;;;;;;;11.65;5.70;;;;;;;16.39;34.46;98497.84;7713092;32;39727;-85
2023/03/14 09:03:06;;;;;;;14.57;5.10;;;;;;;16.49;33.94;98489.94;7712960;32;37872;-85
2023/03/14 09:07:22;;;;;;;13.27;5.93;;;;;;;16.66;33.63;98485.34;7713176;32;37111;-85
2023/03/14 09:11:38;;;;;;;10.05;5.05;;;;;;;17.11;33.62;98467.91;7713047;32;40100;-85
2023/03/14 09:15:56;;;;;;;9.95;5.00;;;;;;;17.34;32.75;98464.66;7712762;32;40833;-84
2023/03/14 09:20:14;;;;;;;15.43;4.50;;;;;;;17.42;33.09;98449.94;7713078;32;38551;-84
2023/03/14 09:24:30;;;;;;;6.80;2.95;;;;;;;18.07;31.17;98443.44;7699271;32;38089;-84
2023/03/14 09:28:46;;;;;;;8.07;4.40;;;;;;;18.09;32.18;98430.06;7712908;32;39374;-85
2023/03/14 09:33:03;;;;;;;6.50;2.53;;;;;;;18.77;31.62;98428.97;7712815;32;40781;-85
2023/03/14 09:37:20;;;;;;;11.40;4.30;;;;;;;19.04;32.23;98420.88;7712721;32;37638;-84
2023/03/14 09:41:40;;;;;;;8.07;3.80;;;;;;;19.80;30.28;98415.75;7712730;32;37216;-84
2023/03/14 09:45:58;;;;;;;9.07;3.67;;;;;;;20.31;29.76;98413.84;7712730;32;40107;-85
2023/03/14 09:50:15;;;;;;;8.57;3.53;;;;;;;20.75;28.18;98397.56;7699090;32;39834;-85
2023/03/14 09:54:37;;;;;;;11.18;4.28;;;;;;;20.71;27.01;98393.13;7712530;32;37675;-85
2023/03/14 09:58:58;;;;;;;9.57;3.75;;;;;;;21.07;27.37;98382.53;7712581;32;37192;-84
2023/03/14 10:03:24;;;;;;;7.20;2.92;;;;;;;21.48;27.06;98375.13;7698623;32;40222;-85
2023/03/14 10:07:42;;;;;;;8.55;3.45;;;;;;;22.05;26.77;98369.34;7699018;32;40751;-85
2023/03/14 10:12:01;;;;;;;7.25;2.45;;;;;;;22.08;26.18;98356.69;7712318;32;37276;-84
2023/03/14 10:16:30;;;;;;;14.82;2.75;;;;;;;21.57;27.25;98347.09;7711875;32;36836;-85
2023/03/14 10:21:02;;;;;;;4.87;2.35;;;;;;;21.83;25.97;98345.38;7699070;32;40016;-85
2023/03/14 10:25:28;;;;;;;5.25;2.25;;;;;;;21.59;25.89;98327.31;7712133;32;39934;-86
2023/03/14 10:30:08;;;;;;;7.50;2.20;;;;;;;21.83;26.37;98320.41;7698768;32;38666;-84
2023/03/14 10:34:36;;;;;;;3.15;1.60;;;;;;;22.18;25.44;98317.13;7698900;32;37739;-85
2023/03/14 10:39:05;;;;;;;4.07;1.70;;;;;;;21.84;25.95;98310.91;7712166;32;39372;-86
2023/03/14 10:43:27;;;;;;;2.05;1.20;;;;;;;20.59;27.79;98311.06;7699208;32;39824;-85
2023/03/14 10:47:49;;;;;;;2.67;1.10;;;;;;;19.14;29.87;98320.88;7698607;32;37482;-85
2023/03/14 10:52:29;;;;;;;5.45;1.40;;;;;;;19.25;29.98;98304.53;7712142;32;37191;-85
2023/03/14 10:56:58;;;;;;;6.18;1.35;;;;;;;19.32;30.57;98288.88;7712103;32;39315;-84
2023/03/14 11:01:50;;;;;;;12.35;1.40;;;;;;;19.15;30.46;98289.34;7711719;32;41014;-84
2023/03/14 11:06:38;;;;;;;3.65;1.12;;;;;;;18.70;31.24;98296.31;7697691;32;38716;-85
2023/03/14 11:11:14;;;;;;;6.32;1.52;;;;;;;18.63;31.31;98285.91;7698128;32;37064;-84
2023/03/14 11:16:06;;;;;;;4.45;1.40;;;;;;;19.38;30.72;98277.53;7699496;32;40082;-85
2023/03/14 11:21:00;;;;;;;3.90;1.37;;;;;;;19.36;30.33;98263.28;7711625;32;39891;-84
2023/03/14 11:25:26;;;;;;;4.20;1.20;;;;;;;19.39;30.37;98260.59;7689755;32;37868;-84
2023/03/14 11:30:00;;;;;;;3.55;1.40;;;;;;;18.80;30.95;98261.78;7711529;32;37741;-85
2023/03/14 11:34:25;;;;;;;1.40;0.90;;;;;;;18.53;31.46;98247.87;7711413;32;39313;-85
2023/03/14 11:38:49;;;;;;;3.95;1.20;;;;;;;19.24;30.49;98242.16;7711553;32;40063;-85
2023/03/14 11:43:17;;;;;;;2.87;1.00;;;;;;;19.29;30.26;98228.03;7711646;32;38696;-84
2023/03/14 11:47:39;;;;;;;6.82;1.33;;;;;;;19.11;30.44;98222.22;7711669;32;36995;-85
2023/03/14 11:51:59;;;;;;;2.15;1.10;;;;;;;19.31;30.15;98214.66;7711379;32;40098;-84
2023/03/14 11:56:36;;;;;;;4.18;1.10;;;;;;;19.29;30.18;98208.69;7697453;32;40619;-82
2023/03/14 12:00:56;;;;;;;3.20;1.27;;;;;;;19.10;30.41;98202.06;7711092;32;38775;-84
2023/03/14 12:05:45;;;;;;;3.95;1.20;;;;;;;19.14;31.00;98202.94;7697459;32;37054;-84
2023/03/14 12:10:02;;;;;;;3.58;1.27;;;;;;;18.54;31.62;98180.44;7711027;32;40146;-83
2023/03/14 12:14:36;;;;;;;6.40;1.33;;;;;;;18.64;31.56;98176.31;7697602;32;39871;-83
2023/03/14 12:18:54;;;;;;;3.65;1.20;;;;;;;18.69;31.29;98181.53;7710274;32;37874;-84
2023/03/14 12:23:12;;;;;;;5.45;1.33;;;;;;;19.04;31.50;98167.62;7696962;32;37360;-84
2023/03/14 12:27:56;;;;;;;4.40;1.20;;;;;;;19.07;31.36;98147.53;7695920;32;39209;-84
2023/03/14 12:32:24;;;;;;;2.72;1.10;;;;;;;19.22;30.37;98150.56;7710459;32;39976;-84
2023/03/14 12:36:49;;;;;;;2.30;1.05;;;;;;;18.89;31.11;98138.19;7710389;32;37858;-84
2023/03/14 12:41:29;;;;;;;4.32;1.10;;;;;;;18.96;30.74;98138.28;7710346;32;36271;-84
2023/03/14 12:46:06;;;;;;;3.72;1.15;;;;;;;19.00;30.83;98144.66;7698048;32;39903;-84
2023/03/14 12:50:36;;;;;;;2.45;1.50;;;;;;;19.17;30.16;98128.78;7697706;32;40876;-85
2023/03/14 12:55:04;;;;;;;1.27;1.10;;;;;;;18.72;30.83;98126.41;7697558;32;37796;-84
2023/03/14 12:59:26;;;;;;;5.28;0.95;;;;;;;18.80;30.97;98119.06;7697003;32;37086;-84
2023/03/14 13:03:50;;;;;;;2.70;1.10;;;;;;;18.81;30.34;98106.06;7709681;32;40080;-84
2023/03/14 13:08:09;;;;;;;2.17;1.10;;;;;;;18.38;30.57;98104.13;7709630;32;39887;-83
2023/03/14 13:12:36;;;;;;;4.28;1.30;;;;;;;18.36;29.89;98122.97;7695717;32;38555;-84
2023/03/14 13:16:53;;;;;;;4.87;1.42;;;;;;;18.24;30.21;98086.47;7709215;32;37278;-84
2023/03/14 13:21:21;;;;;;;4.40;1.35;;;;;;;18.23;30.48;98113.28;7695784;32;39374;-83
2023/03/14 13:25:37;;;;;;;9.98;1.77;;;;;;;18.22;30.12;98122.69;7683688;32;40916;-84
2023/03/14 13:29:54;;;;;;;3.40;1.50;;;;;;;18.36;30.32;98111.13;7709120;32;38471;-84
2023/03/14 13:34:11;;;;;;;2.67;1.42;;;;;;;18.13;32.14;98130.41;7695386;32;37069;-85
2023/03/14 13:38:30;;;;;;;3.55;1.77;;;;;;;17.97;30.79;98153.31;7696022;32;40015;-85
2023/03/14 13:42:47;;;;;;;4.55;1.33;;;;;;;17.97;31.37;98142.28;7712812;32;39819;-86
2023/03/14 13:47:06;;;;;;;4.35;1.50;;;;;;;17.59;32.96;98141.03;7698924;32;38418;-84
2023/03/14 13:51:24;;;;;;;4.25;2.15;;;;;;;17.44;34.76;98158.38;7699145;32;36058;-85
2023/03/14 13:55:40;;;;;;;4.47;1.60;;;;;;;17.36;35.73;98175.88;7699128;32;38650;-85
2023/03/14 14:00:05;;;;;;;4.32;1.95;;;;;;;17.21;36.53;98170.03;7712492;32;40003;-84
2023/03/14 14:04:26;;;;;;;4.03;1.48;;;;;;;16.66;38.60;98168.94;7712480;32;38479;-84
2023/03/14 14:08:43;;;;;;;2.65;1.58;;;;;;;16.68;37.87;98172.94;7712339;32;37913;-84
2023/03/14 14:13:03;;;;;;;3.72;1.37;;;;;;;16.57;37.21;98168.31;7712495;32;39178;-84
2023/03/14 14:17:24;;;;;;;7.07;1.75;;;;;;;16.84;36.55;98185.97;7712141;32;39872;-85
2023/03/14 14:21:43;;;;;;;6.12;1.65;;;;;;;16.78;36.14;98190.09;7699122;32;38591;-84
2023/03/14 14:26:00;;;;;;;4.35;1.60;;;;;;;16.86;37.37;98167.94;7698372;32;36951;-85
2023/03/14 14:30:19;;;;;;;2.35;1.50;;;;;;;16.86;36.46;98170.69;7698341;32;40102;-84
2023/03/14 14:34:49;;;;;;;3.00;1.58;;;;;;;17.30;35.98;98172.59;7712030;32;40813;-85
2023/03/14 14:39:22;;;;;;;3.65;1.70;;;;;;;17.05;37.14;98174.72;7712043;32;37541;-84
2023/03/14 14:43:40;;;;;;;;;;;;;;;17.41;36.43;98173.66;7712473;32;37105;-84
2023/03/14 14:48:00;;;;;;;1.40;1.10;;;;;;;17.77;37.05;98168.97;7712123;32;39806;-84
2023/03/14 14:52:42;;;;;;;2.90;1.85;;;;;;;17.82;37.62;98173.41;7698324;32;40848;-85
2023/03/14 14:57:06;;;;;;;3.28;1.45;;;;;;;17.72;37.16;98179.47;7711992;32;38074;-84
2023/03/14 15:01:30;;;;;;;3.92;1.92;;;;;;;17.55;38.71;98178.69;7711784;32;37206;-84
2023/03/14 15:05:47;;;;;;;5.97;2.00;;;;;;;17.35;44.24;98216.41;7711910;32;40135;-85
2023/03/14 15:10:03;;;;;;;5.55;2.70;;;;;;;17.26;47.68;98230.34;7711709;32;40623;-84
2023/03/14 15:14:22;;;;;;;7.60;2.37;;;;;;;16.59;49.88;98234.78;7711776;32;37147;-83
2023/03/14 15:18:45;;;;;;;5.07;2.45;;;;;;;15.52;52.85;98249.56;7711176;32;37240;-85
2023/03/14 15:23:01;;;;;;;5.47;2.55;;;;;;;15.07;54.44;98250.41;7698478;32;40188;-84
2023/03/14 15:27:19;;;;;;;3.55;1.80;;;;;;;15.21;55.43;98267.34;7711562;32;39826;-84
2023/03/14 15:31:36;;;;;;;7.78;1.77;;;;;;;14.58;56.23;98297.62;7711485;32;38478;-85
2023/03/14 15:35:52;;;;;;;4.60;2.08;;;;;;;14.02;58.67;98317.00;7711496;32;37871;-87
2023/03/14 15:40:13;;;;;;;8.07;1.77;;;;;;;13.97;59.93;98323.47;7711703;32;39438;-85
2023/03/14 15:44:30;;;;;;;3.37;1.75;;;;;;;13.30;63.43;98331.25;7698387;32;41011;-84
2023/03/14 15:48:47;;;;;;;3.70;2.00;;;;;;;12.99;65.25;98339.66;7711134;32;37852;-85
2023/03/14 15:53:03;;;;;;;4.50;2.05;;;;;;;12.78;66.31;98345.78;7711248;32;36989;-85
2023/03/14 15:57:20;;;;;;;4.95;2.58;;;;;;;12.63;67.26;98354.47;7711214;32;39897;-84
2023/03/14 16:01:36;;;;;;;6.12;2.42;;;;;;;12.34;68.83;98361.31;7710014;32;39964;-84
2023/03/14 16:05:52;;;;;;;5.00;2.30;;;;;;;12.35;68.37;98365.69;7710693;32;37883;-85
2023/03/14 16:10:10;;;;;;;5.15;2.28;;;;;;;12.22;69.95;98372.06;7710999;32;38035;-85
2023/03/14 16:14:26;;;;;;;3.78;2.20;;;;;;;12.34;70.19;98391.38;7697600;32;40035;-84
2023/03/14 16:18:43;;;;;;;5.30;2.30;;;;;;;12.68;68.92;98369.91;7710292;32;40032;-85
2023/03/14 16:22:59;;;;;;;7.53;2.50;;;;;;;12.61;69.85;98370.37;7710604;32;37774;-85
2023/03/14 16:27:15;;;;;;;5.50;2.00;;;;;;;12.77;69.13;98371.50;7710600;32;37780;-85
2023/03/14 16:31:31;;;;;;;9.98;3.33;;;;;;;13.23;67.87;98372.00;7711038;32;38360;-85
2023/03/14 16:36:00;;;;;;;11.63;3.55;;;;;;;13.21;68.01;98376.16;7710392;32;40771;-84
2023/03/14 16:40:16;;;;;;;8.38;4.22;;;;;;;13.55;66.72;98361.66;7710231;32;37863;-85
2023/03/14 16:44:35;;;;;;;10.75;4.87;;;;;;;13.74;66.30;98358.53;7710350;32;36708;-85
2023/03/14 16:48:53;;;;;;;10.70;4.40;;;;;;;13.78;66.14;98354.03;7710155;32;39095;-85
2023/03/14 16:53:12;;;;;;;12.25;4.22;;;;;;;13.85;66.10;98359.78;7710035;32;40066;-85
2023/03/14 16:57:28;;;;;;;9.05;4.30;;;;;;;13.98;65.79;98359.91;7710286;32;37936;-85
2023/03/14 17:01:45;;;;;;;7.87;3.60;;;;;;;14.03;65.54;98368.72;7709835;32;37934;-86
2023/03/14 17:06:02;;;;;;;7.80;3.92;;;;;;;14.09;65.18;98372.09;7709738;32;39995;-85
2023/03/14 17:10:19;;;;;;;10.80;4.07;;;;;;;14.12;65.05;98382.38;7709790;32;40093;-86
2023/03/14 17:14:35;;;;;;;8.82;4.35;;;;;;;14.11;65.15;98383.53;7697223;32;37817;-85
2023/03/14 17:18:52;;;;;;;9.18;3.58;;;;;;;14.19;64.72;98379.94;7712594;32;36865;-85
2023/03/14 17:23:08;;;;;;;8.65;3.33;;;;;;;14.01;65.23;98376.47;7699311;32;39417;-85
2023/03/14 17:27:27;;;;;;;11.48;4.68;;;;;;;13.96;65.41;98379.41;7713012;32;40936;-85
2023/03/14 17:31:44;;;;;;;11.85;6.20;;;;;;;14.06;64.91;98386.47;7712779;32;38444;-84
2023/03/14 17:36:00;;;;;;;8.80;3.50;;;;;;;14.06;64.84;98372.75;7712812;32;37854;-84
2023/03/14 17:40:17;;;;;;;9.52;4.30;;;;;;;14.05;64.71;98374.66;7712816;32;39609;-85
2023/03/14 17:44:34;;;;;;;14.15;4.55;;;;;;;14.27;63.11;98376.34;7712684;32;39951;-85
2023/03/14 17:48:50;;;;;;;8.43;3.58;;;;;;;14.06;63.73;98376.28;7712656;32;38570;-84
2023/03/14 17:53:07;;;;;;;7.47;3.37;;;;;;;14.11;63.54;98386.28;7712674;32;37163;-86
2023/03/14 17:57:23;;;;;;;8.95;3.60;;;;;;;14.35;63.13;98388.41;7712665;32;40040;-85
2023/03/14 18:01:40;;;;;;;8.23;3.83;;;;;;;14.00;64.16;98390.50;7713191;32;40648;-85
2023/03/14 18:05:56;;;;;;;10.55;4.45;;;;;;;14.14;63.72;98395.75;7712603;32;37848;-85
2023/03/14 18:10:13;;;;;;;8.82;4.43;;;;;;;13.94;64.75;98395.38;7712374;32;38079;-84
2023/03/14 18:14:30;;;;;;;10.60;4.90;;;;;;;13.94;64.98;98402.78;7712466;32;39217;-84
2023/03/14 18:18:48;;;;;;;12.95;5.37;;;;;;;13.61;66.21;98403.38;7712147;32;40051;-85
2023/03/14 18:23:05;;;;;;;19.12;9.48;;;;;;;13.78;65.88;98402.50;7712382;32;40146;-85
2023/03/14 18:27:22;;;;;;;15.07;6.90;;;;;;;13.77;65.98;98404.44;7711233;32;36890;-85
2023/03/14 18:31:38;;;;;;;10.68;6.20;;;;;;;13.72;66.33;98401.88;7712218;32;39241;-85
2023/03/14 18:35:55;;;;;;;15.85;6.50;;;;;;;13.47;66.43;98403.53;7712047;32;40911;-85
2023/03/14 18:40:15;;;;;;;14.98;7.00;;;;;;;13.40;66.14;98404.03;7711993;32;37309;-85
2023/03/14 18:44:32;;;;;;;11.68;6.15;;;;;;;13.19;67.23;98392.09;7712066;32;37499;-84
2023/03/14 18:48:54;;;;;;;12.10;5.62;;;;;;;13.12;66.72;98393.41;7711725;32;40097;-86
2023/03/14 18:53:11;;;;;;;14.00;6.80;;;;;;;13.33;65.83;98393.59;7711903;32;39909;-86
2023/03/14 18:57:27;;;;;;;13.65;6.47;;;;;;;13.49;64.92;98382.12;7711744;32;38894;-85
2023/03/14 19:01:43;;;;;;;13.55;6.43;;;;;;;13.49;64.41;98379.41;7711756;32;36832;-85
2023/03/14 19:06:03;;;;;;;10.02;5.95;;;;;;;13.24;65.17;98394.69;7712151;32;37366;-85
2023/03/14 19:10:19;;;;;;;12.45;5.95;;;;;;;13.43;64.60;98381.47;7698413;32;39914;-85
2023/03/14 19:14:35;;;;;;;10.45;5.65;;;;;;;13.39;64.43;98369.59;7711530;32;38690;-85
2023/03/14 19:18:54;;;;;;;10.15;5.43;;;;;;;13.37;64.15;98369.09;7711454;32;36922;-85
2023/03/14 19:23:13;;;;;;;10.30;5.85;;;;;;;13.38;63.75;98340.59;7711688;32;39349;-86
2023/03/14 19:27:29;;;;;;;10.98;6.50;;;;;;;13.49;62.70;98341.06;7711507;32;38875;-86
2023/03/14 19:31:45;;;;;;;13.20;6.15;;;;;;;13.43;62.79;98354.09;7711323;32;37753;-86
2023/03/14 19:36:02;;;;;;;9.77;5.37;;;;;;;13.44;62.86;98355.72;7711121;32;38148;-86
2023/03/14 19:40:18;;;;;;;10.73;6.70;;;;;;;13.35;63.25;98352.22;7711528;32;39300;-86
2023/03/14 19:44:35;;;;;;;13.38;6.60;;;;;;;13.43;62.87;98356.84;7711227;32;40935;-86
2023/03/14 19:48:54;;;;;;;11.35;6.90;;;;;;;13.23;63.36;98358.31;7711052;32;38613;-85
2023/03/14 19:53:10;;;;;;;17.02;6.60;;;;;;;13.11;63.56;98372.66;7711232;32;37827;-86
2023/03/14 19:57:26;;;;;;;10.43;4.93;;;;;;;13.17;63.30;98380.69;7711384;32;39601;-86
2023/03/14 20:01:47;;;;;;;11.80;6.07;;;;;;;13.24;63.09;98370.06;7711122;32;39956;-86
2023/03/14 20:06:10;;;;;;;13.10;7.68;;;;;;;13.17;62.80;98383.44;7711021;32;38528;-86
2023/03/14 20:10:26;;;;;;;10.57;6.18;;;;;;;12.99;63.45;98377.13;7710931;32;37931;-86
2023/03/14 20:14:43;;;;;;;9.77;5.93;;;;;;;12.91;63.91;98393.22;7711221;32;39664;-86
2023/03/14 20:18:59;;;;;;;13.62;6.40;;;;;;;12.85;64.02;98401.91;7710646;32;41589;-86